sensor_id;sensor_type;location;lat;lon;timestamp;temperature;humidity
44823;DHT22;51097;51.984;5.650;2023-09-18T00:00:33;23.40;99.90
44823;DHT22;51097;51.984;5.650;2023-09-18T00:03:00;23.40;99.90
44823;DHT22;51097;51.984;5.650;2023-09-18T00:05:28;23.40;99.90
44823;DHT22;51097;51.984;5.650;2023-09-18T00:07:54;23.30;99.90
44823;DHT22;51097;51.984;5.650;2023-09-18T00:10:19;23.40;99.90
44823;DHT22;51097;51.984;5.650;2023-09-18T00:12:45;23.50;99.90
44823;DHT22;51097;51.984;5.650;2023-09-18T00:15:10;23.40;99.90
44823;DHT22;51097;51.984;5.650;2023-09-18T00:17:36;23.40;99.90
44823;DHT22;51097;51.984;5.650;2023-09-18T00:20:02;23.40;99.90
44823;DHT22;51097;51.984;5.650;2023-09-18T00:22:31;23.40;99.90
44823;DHT22;51097;51.984;5.650;2023-09-18T00:24:57;23.40;99.90
44823;DHT22;51097;51.984;5.650;2023-09-18T00:27:23;23.40;99.90
44823;DHT22;51097;51.984;5.650;2023-09-18T00:29:48;23.40;99.90
44823;DHT22;51097;51.984;5.650;2023-09-18T00:32:14;23.40;99.90
44823;DHT22;51097;51.984;5.650;2023-09-18T00:34:40;23.40;99.90
44823;DHT22;51097;51.984;5.650;2023-09-18T00:37:05;23.40;99.90
44823;DHT22;51097;51.984;5.650;2023-09-18T00:39:31;23.50;99.90
44823;DHT22;51097;51.984;5.650;2023-09-18T00:41:57;23.40;99.90
44823;DHT22;51097;51.984;5.650;2023-09-18T00:44:23;23.40;99.90
44823;DHT22;51097;51.984;5.650;2023-09-18T00:46:49;23.20;99.90
44823;DHT22;51097;51.984;5.650;2023-09-18T00:49:16;23.40;99.90
44823;DHT22;51097;51.984;5.650;2023-09-18T00:51:44;23.40;99.90
44823;DHT22;51097;51.984;5.650;2023-09-18T00:54:10;23.50;99.90
44823;DHT22;51097;51.984;5.650;2023-09-18T00:56:36;23.50;99.90
44823;DHT22;51097;51.984;5.650;2023-09-18T00:59:02;23.50;99.90
44823;DHT22;51097;51.984;5.650;2023-09-18T01:01:28;23.40;99.90
44823;DHT22;51097;51.984;5.650;2023-09-18T01:03:56;23.40;99.90
44823;DHT22;51097;51.984;5.650;2023-09-18T01:06:24;23.40;99.90
44823;DHT22;51097;51.984;5.650;2023-09-18T01:08:51;23.40;99.90
44823;DHT22;51097;51.984;5.650;2023-09-18T01:14:40;23.40;99.90
44823;DHT22;51097;51.984;5.650;2023-09-18T01:17:09;23.40;99.90
44823;DHT22;51097;51.984;5.650;2023-09-18T01:19:44;23.20;99.90
44823;DHT22;51097;51.984;5.650;2023-09-18T01:22:17;23.30;99.90
44823;DHT22;51097;51.984;5.650;2023-09-18T01:24:44;23.30;99.90
44823;DHT22;51097;51.984;5.650;2023-09-18T01:27:15;23.20;99.90
44823;DHT22;51097;51.984;5.650;2023-09-18T01:29:45;23.20;99.90
44823;DHT22;51097;51.984;5.650;2023-09-18T01:32:11;23.30;99.90
44823;DHT22;51097;51.984;5.650;2023-09-18T01:34:45;23.30;99.90
44823;DHT22;51097;51.984;5.650;2023-09-18T01:37:11;23.30;99.90
44823;DHT22;51097;51.984;5.650;2023-09-18T01:39:39;23.30;99.90
44823;DHT22;51097;51.984;5.650;2023-09-18T01:42:06;23.30;99.90
44823;DHT22;51097;51.984;5.650;2023-09-18T01:44:35;23.30;99.90
44823;DHT22;51097;51.984;5.650;2023-09-18T01:47:05;23.40;99.90
44823;DHT22;51097;51.984;5.650;2023-09-18T01:49:36;23.20;99.90
44823;DHT22;51097;51.984;5.650;2023-09-18T01:52:03;23.30;99.90
44823;DHT22;51097;51.984;5.650;2023-09-18T01:54:29;23.30;99.90
44823;DHT22;51097;51.984;5.650;2023-09-18T01:56:55;23.40;99.90
44823;DHT22;51097;51.984;5.650;2023-09-18T01:59:22;23.40;99.90
44823;DHT22;51097;51.984;5.650;2023-09-18T02:01:48;23.40;99.90
44823;DHT22;51097;51.984;5.650;2023-09-18T02:04:13;23.40;99.90
44823;DHT22;51097;51.984;5.650;2023-09-18T02:06:39;23.40;99.90
44823;DHT22;51097;51.984;5.650;2023-09-18T02:09:07;23.30;99.90
44823;DHT22;51097;51.984;5.650;2023-09-18T02:11:39;23.40;99.90
44823;DHT22;51097;51.984;5.650;2023-09-18T02:14:05;23.40;99.90
44823;DHT22;51097;51.984;5.650;2023-09-18T02:16:35;23.40;99.90
44823;DHT22;51097;51.984;5.650;2023-09-18T02:19:02;23.50;99.90
44823;DHT22;51097;51.984;5.650;2023-09-18T02:21:27;23.40;99.90
44823;DHT22;51097;51.984;5.650;2023-09-18T02:23:53;23.50;99.90
44823;DHT22;51097;51.984;5.650;2023-09-18T02:26:19;23.40;99.90
44823;DHT22;51097;51.984;5.650;2023-09-18T02:28:45;23.50;99.90
44823;DHT22;51097;51.984;5.650;2023-09-18T02:31:11;23.40;99.90
44823;DHT22;51097;51.984;5.650;2023-09-18T02:33:37;23.40;99.90
44823;DHT22;51097;51.984;5.650;2023-09-18T02:36:03;23.40;99.90
44823;DHT22;51097;51.984;5.650;2023-09-18T02:38:29;23.40;99.90
44823;DHT22;51097;51.984;5.650;2023-09-18T02:40:58;23.50;99.90
44823;DHT22;51097;51.984;5.650;2023-09-18T02:43:23;23.40;99.90
44823;DHT22;51097;51.984;5.650;2023-09-18T02:45:49;23.40;99.90
44823;DHT22;51097;51.984;5.650;2023-09-18T02:48:15;23.40;99.90
44823;DHT22;51097;51.984;5.650;2023-09-18T02:50:41;23.40;99.90
44823;DHT22;51097;51.984;5.650;2023-09-18T02:53:11;23.40;99.90
44823;DHT22;51097;51.984;5.650;2023-09-18T02:55:36;23.50;99.90
44823;DHT22;51097;51.984;5.650;2023-09-18T02:58:02;23.40;99.90
44823;DHT22;51097;51.984;5.650;2023-09-18T03:00:28;23.40;99.90
44823;DHT22;51097;51.984;5.650;2023-09-18T03:02:54;23.40;99.90
44823;DHT22;51097;51.984;5.650;2023-09-18T03:05:19;23.40;99.90
44823;DHT22;51097;51.984;5.650;2023-09-18T03:07:45;23.40;99.90
44823;DHT22;51097;51.984;5.650;2023-09-18T03:10:11;23.40;99.90
44823;DHT22;51097;51.984;5.650;2023-09-18T03:12:40;23.30;99.90
44823;DHT22;51097;51.984;5.650;2023-09-18T03:15:06;23.40;99.90
44823;DHT22;51097;51.984;5.650;2023-09-18T03:17:32;23.40;99.90
44823;DHT22;51097;51.984;5.650;2023-09-18T03:19:57;23.40;99.90
44823;DHT22;51097;51.984;5.650;2023-09-18T03:22:23;23.50;99.90
44823;DHT22;51097;51.984;5.650;2023-09-18T03:24:49;23.40;99.90
44823;DHT22;51097;51.984;5.650;2023-09-18T03:27:14;23.40;99.90
44823;DHT22;51097;51.984;5.650;2023-09-18T03:29:40;23.40;99.90
44823;DHT22;51097;51.984;5.650;2023-09-18T03:32:06;23.40;99.90
44823;DHT22;51097;51.984;5.650;2023-09-18T03:34:31;23.40;99.90
44823;DHT22;51097;51.984;5.650;2023-09-18T03:36:57;23.40;99.90
44823;DHT22;51097;51.984;5.650;2023-09-18T03:39:22;23.40;99.90
44823;DHT22;51097;51.984;5.650;2023-09-18T03:41:48;23.40;99.90
44823;DHT22;51097;51.984;5.650;2023-09-18T03:44:14;23.40;99.90
44823;DHT22;51097;51.984;5.650;2023-09-18T03:46:41;23.50;99.90
44823;DHT22;51097;51.984;5.650;2023-09-18T03:49:07;23.50;99.90
44823;DHT22;51097;51.984;5.650;2023-09-18T03:51:33;23.40;99.90
44823;DHT22;51097;51.984;5.650;2023-09-18T03:53:58;23.40;99.90
44823;DHT22;51097;51.984;5.650;2023-09-18T03:56:24;23.50;99.90
44823;DHT22;51097;51.984;5.650;2023-09-18T03:58:49;23.40;99.90
44823;DHT22;51097;51.984;5.650;2023-09-18T04:01:18;23.40;99.90
44823;DHT22;51097;51.984;5.650;2023-09-18T04:03:43;23.40;99.90
44823;DHT22;51097;51.984;5.650;2023-09-18T04:06:09;23.40;99.90
44823;DHT22;51097;51.984;5.650;2023-09-18T04:08:34;23.40;99.90
44823;DHT22;51097;51.984;5.650;2023-09-18T04:11:00;23.30;99.90
44823;DHT22;51097;51.984;5.650;2023-09-18T04:13:26;23.40;99.90
44823;DHT22;51097;51.984;5.650;2023-09-18T04:15:52;23.40;99.90
44823;DHT22;51097;51.984;5.650;2023-09-18T04:18:22;23.30;99.90
44823;DHT22;51097;51.984;5.650;2023-09-18T04:20:48;23.30;99.90
44823;DHT22;51097;51.984;5.650;2023-09-18T04:23:21;23.30;99.90
44823;DHT22;51097;51.984;5.650;2023-09-18T04:25:48;23.30;99.90
44823;DHT22;51097;51.984;5.650;2023-09-18T04:28:19;23.40;99.90
44823;DHT22;51097;51.984;5.650;2023-09-18T04:30:45;23.30;99.90
44823;DHT22;51097;51.984;5.650;2023-09-18T04:33:10;23.30;99.90
44823;DHT22;51097;51.984;5.650;2023-09-18T04:35:38;23.30;99.90
44823;DHT22;51097;51.984;5.650;2023-09-18T04:38:06;23.20;99.90
44823;DHT22;51097;51.984;5.650;2023-09-18T04:40:31;23.20;99.90
44823;DHT22;51097;51.984;5.650;2023-09-18T04:43:01;23.20;99.90
44823;DHT22;51097;51.984;5.650;2023-09-18T04:45:27;23.30;99.90
44823;DHT22;51097;51.984;5.650;2023-09-18T04:47:53;23.20;99.90
44823;DHT22;51097;51.984;5.650;2023-09-18T04:50:18;23.20;99.90
44823;DHT22;51097;51.984;5.650;2023-09-18T04:52:44;23.20;99.90
44823;DHT22;51097;51.984;5.650;2023-09-18T04:55:10;23.00;99.90
44823;DHT22;51097;51.984;5.650;2023-09-18T04:57:37;23.10;99.90
44823;DHT22;51097;51.984;5.650;2023-09-18T05:00:03;23.10;99.90
44823;DHT22;51097;51.984;5.650;2023-09-18T05:02:34;23.10;99.90
44823;DHT22;51097;51.984;5.650;2023-09-18T05:05:00;23.10;99.90
44823;DHT22;51097;51.984;5.650;2023-09-18T05:07:26;23.20;99.90
44823;DHT22;51097;51.984;5.650;2023-09-18T05:09:52;23.10;99.90
44823;DHT22;51097;51.984;5.650;2023-09-18T05:12:18;23.20;99.90
44823;DHT22;51097;51.984;5.650;2023-09-18T05:14:44;23.20;99.90
44823;DHT22;51097;51.984;5.650;2023-09-18T05:17:14;23.20;99.90
44823;DHT22;51097;51.984;5.650;2023-09-18T05:19:40;23.20;99.90
44823;DHT22;51097;51.984;5.650;2023-09-18T05:22:07;23.20;99.90
44823;DHT22;51097;51.984;5.650;2023-09-18T05:24:33;23.30;99.90
44823;DHT22;51097;51.984;5.650;2023-09-18T05:26:58;23.40;99.90
44823;DHT22;51097;51.984;5.650;2023-09-18T05:29:24;23.30;99.90
44823;DHT22;51097;51.984;5.650;2023-09-18T05:31:50;23.20;99.90
44823;DHT22;51097;51.984;5.650;2023-09-18T05:34:15;23.30;99.90
44823;DHT22;51097;51.984;5.650;2023-09-18T05:36:41;23.30;99.90
44823;DHT22;51097;51.984;5.650;2023-09-18T05:39:06;23.30;99.90
44823;DHT22;51097;51.984;5.650;2023-09-18T05:41:41;23.30;99.90
44823;DHT22;51097;51.984;5.650;2023-09-18T05:44:07;23.20;99.90
44823;DHT22;51097;51.984;5.650;2023-09-18T05:46:36;23.30;99.90
44823;DHT22;51097;51.984;5.650;2023-09-18T05:49:04;23.30;99.90
44823;DHT22;51097;51.984;5.650;2023-09-18T05:51:30;23.30;99.90
44823;DHT22;51097;51.984;5.650;2023-09-18T05:53:58;23.30;99.90
44823;DHT22;51097;51.984;5.650;2023-09-18T05:56:23;23.30;99.90
44823;DHT22;51097;51.984;5.650;2023-09-18T05:58:49;23.30;99.90
44823;DHT22;51097;51.984;5.650;2023-09-18T06:01:15;23.30;99.90
44823;DHT22;51097;51.984;5.650;2023-09-18T06:03:40;23.30;99.90
44823;DHT22;51097;51.984;5.650;2023-09-18T06:06:06;23.30;99.90
44823;DHT22;51097;51.984;5.650;2023-09-18T06:08:31;23.20;99.90
44823;DHT22;51097;51.984;5.650;2023-09-18T06:10:58;23.20;99.90
44823;DHT22;51097;51.984;5.650;2023-09-18T06:13:24;23.10;99.90
44823;DHT22;51097;51.984;5.650;2023-09-18T06:15:51;23.40;99.90
44823;DHT22;51097;51.984;5.650;2023-09-18T06:18:18;23.30;99.90
44823;DHT22;51097;51.984;5.650;2023-09-18T06:20:46;23.40;99.90
44823;DHT22;51097;51.984;5.650;2023-09-18T06:23:12;23.30;99.90
44823;DHT22;51097;51.984;5.650;2023-09-18T06:25:38;23.40;99.90
44823;DHT22;51097;51.984;5.650;2023-09-18T06:28:04;23.30;99.90
44823;DHT22;51097;51.984;5.650;2023-09-18T06:30:30;23.30;99.90
44823;DHT22;51097;51.984;5.650;2023-09-18T06:32:56;23.20;99.90
44823;DHT22;51097;51.984;5.650;2023-09-18T06:35:22;23.30;99.90
44823;DHT22;51097;51.984;5.650;2023-09-18T06:37:47;23.20;99.90
44823;DHT22;51097;51.984;5.650;2023-09-18T06:40:13;23.20;99.90
44823;DHT22;51097;51.984;5.650;2023-09-18T06:42:39;23.30;99.90
44823;DHT22;51097;51.984;5.650;2023-09-18T06:45:06;23.30;99.90
44823;DHT22;51097;51.984;5.650;2023-09-18T06:47:33;23.40;99.90
44823;DHT22;51097;51.984;5.650;2023-09-18T06:49:58;23.30;99.90
44823;DHT22;51097;51.984;5.650;2023-09-18T06:52:25;23.40;99.90
44823;DHT22;51097;51.984;5.650;2023-09-18T06:54:52;23.30;99.90
44823;DHT22;51097;51.984;5.650;2023-09-18T06:57:18;23.40;99.90
44823;DHT22;51097;51.984;5.650;2023-09-18T06:59:43;23.40;99.90
44823;DHT22;51097;51.984;5.650;2023-09-18T07:02:10;23.20;99.90
44823;DHT22;51097;51.984;5.650;2023-09-18T07:04:35;23.30;99.90
44823;DHT22;51097;51.984;5.650;2023-09-18T07:07:02;23.30;99.90
44823;DHT22;51097;51.984;5.650;2023-09-18T07:09:28;23.40;99.90
44823;DHT22;51097;51.984;5.650;2023-09-18T07:11:54;23.40;99.90
44823;DHT22;51097;51.984;5.650;2023-09-18T07:14:19;23.40;99.90
44823;DHT22;51097;51.984;5.650;2023-09-18T07:16:45;23.40;99.90
44823;DHT22;51097;51.984;5.650;2023-09-18T07:19:10;23.10;99.90
44823;DHT22;51097;51.984;5.650;2023-09-18T07:21:42;23.30;99.90
44823;DHT22;51097;51.984;5.650;2023-09-18T07:24:07;23.30;99.90
44823;DHT22;51097;51.984;5.650;2023-09-18T07:26:33;23.30;99.90
44823;DHT22;51097;51.984;5.650;2023-09-18T07:28:59;23.40;99.90
44823;DHT22;51097;51.984;5.650;2023-09-18T07:31:24;23.50;99.90
44823;DHT22;51097;51.984;5.650;2023-09-18T07:33:50;23.30;99.90
44823;DHT22;51097;51.984;5.650;2023-09-18T07:36:17;23.40;99.90
44823;DHT22;51097;51.984;5.650;2023-09-18T07:38:42;23.50;99.90
44823;DHT22;51097;51.984;5.650;2023-09-18T07:41:09;23.50;99.90
44823;DHT22;51097;51.984;5.650;2023-09-18T07:43:34;23.50;99.90
44823;DHT22;51097;51.984;5.650;2023-09-18T07:46:00;23.40;99.90
44823;DHT22;51097;51.984;5.650;2023-09-18T07:48:27;23.50;99.90
44823;DHT22;51097;51.984;5.650;2023-09-18T07:50:52;23.50;99.90
44823;DHT22;51097;51.984;5.650;2023-09-18T07:53:20;23.60;99.90
44823;DHT22;51097;51.984;5.650;2023-09-18T07:55:45;23.60;99.90
44823;DHT22;51097;51.984;5.650;2023-09-18T07:58:11;23.50;99.90
44823;DHT22;51097;51.984;5.650;2023-09-18T08:00:37;23.50;99.90
44823;DHT22;51097;51.984;5.650;2023-09-18T08:03:02;23.50;99.90
44823;DHT22;51097;51.984;5.650;2023-09-18T08:05:28;23.60;99.90
44823;DHT22;51097;51.984;5.650;2023-09-18T08:07:55;23.60;99.90
44823;DHT22;51097;51.984;5.650;2023-09-18T08:10:23;23.70;99.90
44823;DHT22;51097;51.984;5.650;2023-09-18T08:12:48;23.70;99.90
44823;DHT22;51097;51.984;5.650;2023-09-18T08:15:16;23.60;99.90
44823;DHT22;51097;51.984;5.650;2023-09-18T08:17:42;23.70;99.90
44823;DHT22;51097;51.984;5.650;2023-09-18T08:20:09;23.70;99.90
44823;DHT22;51097;51.984;5.650;2023-09-18T08:22:38;23.70;99.90
44823;DHT22;51097;51.984;5.650;2023-09-18T08:25:05;23.80;99.90
44823;DHT22;51097;51.984;5.650;2023-09-18T08:27:33;23.80;99.90
44823;DHT22;51097;51.984;5.650;2023-09-18T08:29:59;23.80;99.90
44823;DHT22;51097;51.984;5.650;2023-09-18T08:32:24;23.80;99.90
44823;DHT22;51097;51.984;5.650;2023-09-18T08:34:50;23.60;99.90
44823;DHT22;51097;51.984;5.650;2023-09-18T08:37:15;23.90;99.90
44823;DHT22;51097;51.984;5.650;2023-09-18T08:39:41;23.80;99.90
44823;DHT22;51097;51.984;5.650;2023-09-18T08:42:07;23.70;99.90
44823;DHT22;51097;51.984;5.650;2023-09-18T08:44:35;23.70;99.90
44823;DHT22;51097;51.984;5.650;2023-09-18T08:47:04;23.70;99.90
44823;DHT22;51097;51.984;5.650;2023-09-18T08:49:30;23.80;99.90
44823;DHT22;51097;51.984;5.650;2023-09-18T08:51:57;23.80;99.90
44823;DHT22;51097;51.984;5.650;2023-09-18T08:54:24;23.80;99.90
44823;DHT22;51097;51.984;5.650;2023-09-18T08:56:53;23.70;99.90
44823;DHT22;51097;51.984;5.650;2023-09-18T08:59:21;23.60;99.90
44823;DHT22;51097;51.984;5.650;2023-09-18T09:01:48;23.70;99.90
44823;DHT22;51097;51.984;5.650;2023-09-18T09:04:13;23.70;99.90
44823;DHT22;51097;51.984;5.650;2023-09-18T09:06:40;23.70;99.90
44823;DHT22;51097;51.984;5.650;2023-09-18T09:09:05;23.80;99.90
44823;DHT22;51097;51.984;5.650;2023-09-18T09:11:33;23.70;99.90
44823;DHT22;51097;51.984;5.650;2023-09-18T09:14:10;23.70;99.90
44823;DHT22;51097;51.984;5.650;2023-09-18T09:16:53;23.90;99.90
44823;DHT22;51097;51.984;5.650;2023-09-18T09:19:29;23.80;99.90
44823;DHT22;51097;51.984;5.650;2023-09-18T09:21:55;23.70;99.90
44823;DHT22;51097;51.984;5.650;2023-09-18T09:24:41;23.70;99.90
44823;DHT22;51097;51.984;5.650;2023-09-18T09:27:08;23.80;99.90
44823;DHT22;51097;51.984;5.650;2023-09-18T09:29:34;23.70;99.90
44823;DHT22;51097;51.984;5.650;2023-09-18T09:32:17;23.70;99.90
44823;DHT22;51097;51.984;5.650;2023-09-18T09:34:43;23.90;99.90
44823;DHT22;51097;51.984;5.650;2023-09-18T09:37:09;24.00;99.90
44823;DHT22;51097;51.984;5.650;2023-09-18T09:39:49;24.10;99.90
44823;DHT22;51097;51.984;5.650;2023-09-18T09:42:19;24.20;99.90
44823;DHT22;51097;51.984;5.650;2023-09-18T09:45:02;24.30;99.90
44823;DHT22;51097;51.984;5.650;2023-09-18T09:47:33;24.30;99.90
44823;DHT22;51097;51.984;5.650;2023-09-18T09:49:58;24.40;99.90
44823;DHT22;51097;51.984;5.650;2023-09-18T09:52:28;24.50;99.90
44823;DHT22;51097;51.984;5.650;2023-09-18T09:54:54;24.50;99.90
44823;DHT22;51097;51.984;5.650;2023-09-18T09:57:21;24.60;99.90
44823;DHT22;51097;51.984;5.650;2023-09-18T09:59:46;24.60;99.90
44823;DHT22;51097;51.984;5.650;2023-09-18T10:02:12;24.70;99.90
44823;DHT22;51097;51.984;5.650;2023-09-18T10:04:45;24.70;99.90
44823;DHT22;51097;51.984;5.650;2023-09-18T10:07:14;24.70;99.90
44823;DHT22;51097;51.984;5.650;2023-09-18T10:09:41;24.80;99.90
44823;DHT22;51097;51.984;5.650;2023-09-18T10:12:11;24.60;99.90
44823;DHT22;51097;51.984;5.650;2023-09-18T10:14:37;24.70;99.90
44823;DHT22;51097;51.984;5.650;2023-09-18T10:17:12;25.00;99.90
44823;DHT22;51097;51.984;5.650;2023-09-18T10:22:29;25.10;99.90
44823;DHT22;51097;51.984;5.650;2023-09-18T10:25:11;25.00;99.90
44823;DHT22;51097;51.984;5.650;2023-09-18T10:27:39;25.20;99.90
44823;DHT22;51097;51.984;5.650;2023-09-18T10:30:08;25.20;99.90
44823;DHT22;51097;51.984;5.650;2023-09-18T10:32:38;25.20;99.90
44823;DHT22;51097;51.984;5.650;2023-09-18T10:35:06;25.10;99.90
44823;DHT22;51097;51.984;5.650;2023-09-18T10:37:33;25.10;99.90
44823;DHT22;51097;51.984;5.650;2023-09-18T10:40:00;25.00;99.90
44823;DHT22;51097;51.984;5.650;2023-09-18T10:42:27;25.00;99.90
44823;DHT22;51097;51.984;5.650;2023-09-18T10:44:53;25.00;99.90
44823;DHT22;51097;51.984;5.650;2023-09-18T10:47:19;24.80;99.90
44823;DHT22;51097;51.984;5.650;2023-09-18T10:49:46;24.90;99.90
44823;DHT22;51097;51.984;5.650;2023-09-18T10:52:12;24.90;99.90
44823;DHT22;51097;51.984;5.650;2023-09-18T10:54:39;24.90;99.90
44823;DHT22;51097;51.984;5.650;2023-09-18T10:57:05;24.80;99.90
44823;DHT22;51097;51.984;5.650;2023-09-18T10:59:31;24.80;99.90
44823;DHT22;51097;51.984;5.650;2023-09-18T11:02:02;24.80;99.90
44823;DHT22;51097;51.984;5.650;2023-09-18T11:04:31;24.90;99.90
44823;DHT22;51097;51.984;5.650;2023-09-18T11:09:30;25.00;99.90
44823;DHT22;51097;51.984;5.650;2023-09-18T11:17:31;25.20;99.90
44823;DHT22;51097;51.984;5.650;2023-09-18T11:20:09;25.30;99.90
44823;DHT22;51097;51.984;5.650;2023-09-18T11:22:47;25.40;99.90
44823;DHT22;51097;51.984;5.650;2023-09-18T11:25:49;25.40;99.90
44823;DHT22;51097;51.984;5.650;2023-09-18T11:28:24;25.40;99.90
44823;DHT22;51097;51.984;5.650;2023-09-18T11:30:50;25.30;99.90
44823;DHT22;51097;51.984;5.650;2023-09-18T11:33:36;25.30;99.90
44823;DHT22;51097;51.984;5.650;2023-09-18T11:36:07;25.30;99.90
44823;DHT22;51097;51.984;5.650;2023-09-18T11:38:35;25.20;99.90
44823;DHT22;51097;51.984;5.650;2023-09-18T11:41:23;25.20;99.90
44823;DHT22;51097;51.984;5.650;2023-09-18T11:43:50;25.30;99.90
44823;DHT22;51097;51.984;5.650;2023-09-18T11:46:19;25.30;99.90
44823;DHT22;51097;51.984;5.650;2023-09-18T11:48:47;25.40;99.90
44823;DHT22;51097;51.984;5.650;2023-09-18T11:51:21;25.40;99.90
44823;DHT22;51097;51.984;5.650;2023-09-18T11:53:47;25.60;99.90
44823;DHT22;51097;51.984;5.650;2023-09-18T11:56:13;25.50;99.90
44823;DHT22;51097;51.984;5.650;2023-09-18T11:58:51;25.60;99.90
44823;DHT22;51097;51.984;5.650;2023-09-18T12:01:18;25.60;99.90
44823;DHT22;51097;51.984;5.650;2023-09-18T12:03:44;25.70;99.90
44823;DHT22;51097;51.984;5.650;2023-09-18T12:06:10;25.80;99.90
44823;DHT22;51097;51.984;5.650;2023-09-18T12:08:39;25.90;99.90
44823;DHT22;51097;51.984;5.650;2023-09-18T12:11:06;26.00;99.90
44823;DHT22;51097;51.984;5.650;2023-09-18T12:13:32;26.00;99.90
44823;DHT22;51097;51.984;5.650;2023-09-18T12:16:03;25.80;99.90
44823;DHT22;51097;51.984;5.650;2023-09-18T12:18:35;25.80;99.90
44823;DHT22;51097;51.984;5.650;2023-09-18T12:21:06;25.80;99.90
44823;DHT22;51097;51.984;5.650;2023-09-18T12:23:42;25.60;99.90
44823;DHT22;51097;51.984;5.650;2023-09-18T12:26:11;25.70;99.90
44823;DHT22;51097;51.984;5.650;2023-09-18T12:28:38;25.80;99.90
44823;DHT22;51097;51.984;5.650;2023-09-18T12:31:04;26.00;99.90
44823;DHT22;51097;51.984;5.650;2023-09-18T12:33:34;26.10;99.90
44823;DHT22;51097;51.984;5.650;2023-09-18T12:36:00;26.20;99.90
44823;DHT22;51097;51.984;5.650;2023-09-18T12:38:26;26.30;99.90
44823;DHT22;51097;51.984;5.650;2023-09-18T12:40:53;26.40;99.90
44823;DHT22;51097;51.984;5.650;2023-09-18T12:43:20;26.60;99.90
44823;DHT22;51097;51.984;5.650;2023-09-18T12:45:48;26.70;99.90
44823;DHT22;51097;51.984;5.650;2023-09-18T12:48:15;26.80;99.90
44823;DHT22;51097;51.984;5.650;2023-09-18T12:50:41;27.20;99.90
44823;DHT22;51097;51.984;5.650;2023-09-18T12:53:22;27.40;99.90
44823;DHT22;51097;51.984;5.650;2023-09-18T12:55:48;27.70;99.90
44823;DHT22;51097;51.984;5.650;2023-09-18T12:58:21;27.80;99.90
44823;DHT22;51097;51.984;5.650;2023-09-18T13:00:50;28.00;99.90
44823;DHT22;51097;51.984;5.650;2023-09-18T13:03:16;28.00;99.90
44823;DHT22;51097;51.984;5.650;2023-09-18T13:05:41;28.10;99.90
44823;DHT22;51097;51.984;5.650;2023-09-18T13:08:07;28.30;99.90
44823;DHT22;51097;51.984;5.650;2023-09-18T13:10:44;28.30;99.90
44823;DHT22;51097;51.984;5.650;2023-09-18T13:13:23;28.40;99.90
44823;DHT22;51097;51.984;5.650;2023-09-18T13:15:49;28.40;99.90
44823;DHT22;51097;51.984;5.650;2023-09-18T13:18:16;28.20;99.90
44823;DHT22;51097;51.984;5.650;2023-09-18T13:20:43;28.20;99.90
44823;DHT22;51097;51.984;5.650;2023-09-18T13:23:09;28.20;99.90
44823;DHT22;51097;51.984;5.650;2023-09-18T13:25:37;28.40;99.90
44823;DHT22;51097;51.984;5.650;2023-09-18T13:28:05;28.50;99.90
44823;DHT22;51097;51.984;5.650;2023-09-18T13:30:31;28.70;99.90
44823;DHT22;51097;51.984;5.650;2023-09-18T13:33:04;28.70;99.90
44823;DHT22;51097;51.984;5.650;2023-09-18T13:35:31;28.70;99.90
44823;DHT22;51097;51.984;5.650;2023-09-18T13:37:57;28.70;99.90
44823;DHT22;51097;51.984;5.650;2023-09-18T13:40:23;28.80;99.90
44823;DHT22;51097;51.984;5.650;2023-09-18T13:42:49;28.50;99.90
44823;DHT22;51097;51.984;5.650;2023-09-18T13:45:15;28.50;99.90
44823;DHT22;51097;51.984;5.650;2023-09-18T13:47:42;28.50;99.90
44823;DHT22;51097;51.984;5.650;2023-09-18T13:50:08;28.50;99.90
44823;DHT22;51097;51.984;5.650;2023-09-18T13:52:35;28.50;99.90
44823;DHT22;51097;51.984;5.650;2023-09-18T13:55:04;28.70;99.90
44823;DHT22;51097;51.984;5.650;2023-09-18T13:57:34;28.80;99.90
44823;DHT22;51097;51.984;5.650;2023-09-18T14:00:02;28.90;99.90
44823;DHT22;51097;51.984;5.650;2023-09-18T14:02:32;28.80;99.90
44823;DHT22;51097;51.984;5.650;2023-09-18T14:04:58;28.70;99.90
44823;DHT22;51097;51.984;5.650;2023-09-18T14:07:24;28.50;99.90
44823;DHT22;51097;51.984;5.650;2023-09-18T14:09:49;28.70;99.90
44823;DHT22;51097;51.984;5.650;2023-09-18T14:12:15;28.70;99.90
44823;DHT22;51097;51.984;5.650;2023-09-18T14:14:42;28.80;99.90
44823;DHT22;51097;51.984;5.650;2023-09-18T14:17:08;28.90;99.90
44823;DHT22;51097;51.984;5.650;2023-09-18T14:19:34;28.90;99.90
44823;DHT22;51097;51.984;5.650;2023-09-18T14:22:00;28.70;99.90
44823;DHT22;51097;51.984;5.650;2023-09-18T14:24:29;28.60;99.90
44823;DHT22;51097;51.984;5.650;2023-09-18T14:26:55;28.60;99.90
44823;DHT22;51097;51.984;5.650;2023-09-18T14:29:21;28.40;99.90
44823;DHT22;51097;51.984;5.650;2023-09-18T14:31:47;28.40;99.90
44823;DHT22;51097;51.984;5.650;2023-09-18T14:34:12;28.30;99.90
44823;DHT22;51097;51.984;5.650;2023-09-18T14:36:39;28.20;99.90
44823;DHT22;51097;51.984;5.650;2023-09-18T14:39:06;28.00;99.90
44823;DHT22;51097;51.984;5.650;2023-09-18T14:41:38;28.00;99.90
44823;DHT22;51097;51.984;5.650;2023-09-18T14:44:05;28.00;99.90
44823;DHT22;51097;51.984;5.650;2023-09-18T14:46:31;28.10;99.90
44823;DHT22;51097;51.984;5.650;2023-09-18T14:48:59;28.20;99.90
44823;DHT22;51097;51.984;5.650;2023-09-18T14:51:26;28.00;99.90
44823;DHT22;51097;51.984;5.650;2023-09-18T14:53:54;27.90;99.90
44823;DHT22;51097;51.984;5.650;2023-09-18T14:56:19;27.90;99.90
44823;DHT22;51097;51.984;5.650;2023-09-18T14:58:45;27.80;99.90
44823;DHT22;51097;51.984;5.650;2023-09-18T15:01:11;27.80;99.90
44823;DHT22;51097;51.984;5.650;2023-09-18T15:03:36;27.70;99.90
44823;DHT22;51097;51.984;5.650;2023-09-18T15:06:02;27.90;99.90
44823;DHT22;51097;51.984;5.650;2023-09-18T15:08:28;27.80;99.90
44823;DHT22;51097;51.984;5.650;2023-09-18T15:10:53;27.70;99.90
44823;DHT22;51097;51.984;5.650;2023-09-18T15:13:19;27.60;99.90
44823;DHT22;51097;51.984;5.650;2023-09-18T15:15:44;27.60;99.90
44823;DHT22;51097;51.984;5.650;2023-09-18T15:18:11;27.60;99.90
44823;DHT22;51097;51.984;5.650;2023-09-18T15:20:36;27.50;99.90
44823;DHT22;51097;51.984;5.650;2023-09-18T15:23:02;27.30;99.90
44823;DHT22;51097;51.984;5.650;2023-09-18T15:25:28;26.70;99.90
44823;DHT22;51097;51.984;5.650;2023-09-18T15:27:54;25.90;99.90
44823;DHT22;51097;51.984;5.650;2023-09-18T15:30:20;25.20;99.90
44823;DHT22;51097;51.984;5.650;2023-09-18T15:32:51;24.70;99.90
44823;DHT22;51097;51.984;5.650;2023-09-18T15:35:19;24.10;99.90
44823;DHT22;51097;51.984;5.650;2023-09-18T15:37:45;23.80;99.90
44823;DHT22;51097;51.984;5.650;2023-09-18T15:40:11;23.50;99.90
44823;DHT22;51097;51.984;5.650;2023-09-18T15:42:39;23.00;99.90
44823;DHT22;51097;51.984;5.650;2023-09-18T15:45:08;22.70;99.90